sensor_id;sensor_type;location;lat;lon;timestamp;pressure;altitude;pressure_sealevel;temperature;humidity
65800;BME280;52544;48.116;11.660;2022-08-01T00:02:26;95603.75;;;21.88;58.89
65800;BME280;52544;48.116;11.660;2022-08-01T00:04:54;95600.84;;;21.89;58.37
65800;BME280;52544;48.116;11.660;2022-08-01T00:07:19;95599.78;;;21.90;58.86
65800;BME280;52544;48.116;11.660;2022-08-01T00:09:44;95600.84;;;21.89;59.07
65800;BME280;52544;48.116;11.660;2022-08-01T00:12:10;95598.34;;;21.88;58.60
65800;BME280;52544;48.116;11.660;2022-08-01T00:14:35;95607.00;;;21.83;59.40
65800;BME280;52544;48.116;11.660;2022-08-01T00:17:01;95607.88;;;21.84;59.22
65800;BME280;52544;48.116;11.660;2022-08-01T00:19:26;95608.47;;;21.86;59.53
65800;BME280;52544;48.116;11.660;2022-08-01T00:21:52;95607.44;;;21.87;59.22
65800;BME280;52544;48.116;11.660;2022-08-01T00:24:17;95605.19;;;21.84;59.61
65800;BME280;52544;48.116;11.660;2022-08-01T00:26:42;95620.28;;;21.85;59.02
65800;BME280;52544;48.116;11.660;2022-08-01T00:29:08;95616.34;;;21.87;59.59
65800;BME280;52544;48.116;11.660;2022-08-01T00:31:33;95619.91;;;21.88;59.21
65800;BME280;52544;48.116;11.660;2022-08-01T00:33:58;95624.41;;;21.81;59.98
65800;BME280;52544;48.116;11.660;2022-08-01T00:36:24;95618.63;;;21.84;59.76
65800;BME280;52544;48.116;11.660;2022-08-01T00:38:49;95620.25;;;21.78;59.49
65800;BME280;52544;48.116;11.660;2022-08-01T00:41:15;95623.78;;;21.79;60.01
65800;BME280;52544;48.116;11.660;2022-08-01T00:43:40;95619.81;;;21.75;60.52
65800;BME280;52544;48.116;11.660;2022-08-01T00:46:06;95625.19;;;21.68;60.82
65800;BME280;52544;48.116;11.660;2022-08-01T00:48:31;95614.34;;;21.61;60.49
65800;BME280;52544;48.116;11.660;2022-08-01T00:50:57;95627.88;;;21.68;60.14
65800;BME280;52544;48.116;11.660;2022-08-01T00:53:22;95620.75;;;21.54;60.84
65800;BME280;52544;48.116;11.660;2022-08-01T00:55:48;95619.06;;;21.46;61.14
65800;BME280;52544;48.116;11.660;2022-08-01T00:58:13;95616.97;;;21.48;61.05
65800;BME280;52544;48.116;11.660;2022-08-01T01:00:39;95618.56;;;21.36;61.35
65800;BME280;52544;48.116;11.660;2022-08-01T01:03:04;95621.25;;;21.36;61.86
65800;BME280;52544;48.116;11.660;2022-08-01T01:05:36;95618.28;;;21.31;61.62
65800;BME280;52544;48.116;11.660;2022-08-01T01:08:13;95621.78;;;21.25;61.03
65800;BME280;52544;48.116;11.660;2022-08-01T01:10:54;95625.75;;;21.29;61.27
65800;BME280;52544;48.116;11.660;2022-08-01T01:13:52;95619.09;;;21.25;60.76
65800;BME280;52544;48.116;11.660;2022-08-01T01:16:21;95627.88;;;21.33;60.81
65800;BME280;52544;48.116;11.660;2022-08-01T01:18:54;95623.66;;;21.24;60.11
65800;BME280;52544;48.116;11.660;2022-08-01T01:23:58;95630.69;;;21.25;60.67
65800;BME280;52544;48.116;11.660;2022-08-01T01:29:40;95630.56;;;21.33;60.07
65800;BME280;52544;48.116;11.660;2022-08-01T01:32:07;95626.56;;;21.29;60.06
65800;BME280;52544;48.116;11.660;2022-08-01T01:34:37;95625.44;;;21.17;59.78
65800;BME280;52544;48.116;11.660;2022-08-01T01:37:06;95627.69;;;21.13;59.68
65800;BME280;52544;48.116;11.660;2022-08-01T01:39:35;95632.63;;;21.10;60.26
65800;BME280;52544;48.116;11.660;2022-08-01T01:42:02;95629.31;;;21.08;60.61
65800;BME280;52544;48.116;11.660;2022-08-01T01:44:30;95631.34;;;21.06;60.42
65800;BME280;52544;48.116;11.660;2022-08-01T01:46:56;95631.69;;;20.96;60.77
65800;BME280;52544;48.116;11.660;2022-08-01T01:49:25;95626.25;;;20.89;60.51
65800;BME280;52544;48.116;11.660;2022-08-01T01:51:53;95634.59;;;20.94;60.47
65800;BME280;52544;48.116;11.660;2022-08-01T01:54:23;95627.50;;;20.93;60.11
65800;BME280;52544;48.116;11.660;2022-08-01T01:56:50;95631.75;;;21.03;59.76
65800;BME280;52544;48.116;11.660;2022-08-01T01:59:21;95632.97;;;21.00;59.42
65800;BME280;52544;48.116;11.660;2022-08-01T02:01:50;95631.09;;;21.01;60.83
65800;BME280;52544;48.116;11.660;2022-08-01T02:04:16;95640.81;;;21.02;60.12
65800;BME280;52544;48.116;11.660;2022-08-01T02:06:44;95629.56;;;21.13;59.56
65800;BME280;52544;48.116;11.660;2022-08-01T02:09:14;95640.69;;;21.10;60.00
65800;BME280;52544;48.116;11.660;2022-08-01T02:11:41;95631.34;;;21.06;59.97
65800;BME280;52544;48.116;11.660;2022-08-01T02:14:08;95638.81;;;21.10;59.21
65800;BME280;52544;48.116;11.660;2022-08-01T02:16:36;95645.63;;;21.06;59.75
65800;BME280;52544;48.116;11.660;2022-08-01T02:19:02;95634.00;;;20.99;59.90
65800;BME280;52544;48.116;11.660;2022-08-01T02:21:32;95635.06;;;21.05;59.13
65800;BME280;52544;48.116;11.660;2022-08-01T02:26:50;95641.06;;;21.07;58.66
65800;BME280;52544;48.116;11.660;2022-08-01T02:29:37;95637.16;;;21.09;58.06
65800;BME280;52544;48.116;11.660;2022-08-01T02:32:06;95642.94;;;21.06;58.50
65800;BME280;52544;48.116;11.660;2022-08-01T02:34:34;95647.31;;;21.07;58.13
65800;BME280;52544;48.116;11.660;2022-08-01T02:37:02;95647.03;;;21.02;58.96
65800;BME280;52544;48.116;11.660;2022-08-01T02:39:30;95647.56;;;21.12;58.00
65800;BME280;52544;48.116;11.660;2022-08-01T02:41:59;95648.97;;;21.08;57.96
65800;BME280;52544;48.116;11.660;2022-08-01T02:44:31;95648.72;;;21.03;58.26
65800;BME280;52544;48.116;11.660;2022-08-01T02:47:00;95643.47;;;20.95;59.30
65800;BME280;52544;48.116;11.660;2022-08-01T02:49:35;95644.44;;;20.87;59.04
65800;BME280;52544;48.116;11.660;2022-08-01T02:52:05;95641.97;;;20.86;59.04
65800;BME280;52544;48.116;11.660;2022-08-01T02:54:32;95649.16;;;20.85;59.02
65800;BME280;52544;48.116;11.660;2022-08-01T02:57:03;95648.41;;;20.91;58.70
65800;BME280;52544;48.116;11.660;2022-08-01T02:59:31;95653.59;;;20.93;57.64
65800;BME280;52544;48.116;11.660;2022-08-01T03:01:58;95651.34;;;20.96;57.51
65800;BME280;52544;48.116;11.660;2022-08-01T03:04:26;95650.44;;;20.89;58.53
65800;BME280;52544;48.116;11.660;2022-08-01T03:06:54;95650.66;;;20.88;58.53
65800;BME280;52544;48.116;11.660;2022-08-01T03:09:21;95652.44;;;20.81;58.80
65800;BME280;52544;48.116;11.660;2022-08-01T03:11:48;95649.56;;;20.82;58.86
65800;BME280;52544;48.116;11.660;2022-08-01T03:14:15;95647.00;;;20.74;58.91
65800;BME280;52544;48.116;11.660;2022-08-01T03:16:44;95655.25;;;20.72;59.10
65800;BME280;52544;48.116;11.660;2022-08-01T03:19:11;95657.94;;;20.72;59.21
65800;BME280;52544;48.116;11.660;2022-08-01T03:21:39;95659.56;;;20.67;60.40
65800;BME280;52544;48.116;11.660;2022-08-01T03:24:05;95667.13;;;20.57;60.32
65800;BME280;52544;48.116;11.660;2022-08-01T03:26:34;95662.00;;;20.47;61.15
65800;BME280;52544;48.116;11.660;2022-08-01T03:29:11;95660.34;;;20.46;61.24
65800;BME280;52544;48.116;11.660;2022-08-01T03:31:38;95665.66;;;20.39;61.06
65800;BME280;52544;48.116;11.660;2022-08-01T03:34:04;95663.72;;;20.48;60.63
65800;BME280;52544;48.116;11.660;2022-08-01T03:36:31;95673.44;;;20.49;60.40
65800;BME280;52544;48.116;11.660;2022-08-01T03:39:01;95668.41;;;20.46;60.82
65800;BME280;52544;48.116;11.660;2022-08-01T03:41:32;95668.06;;;20.49;60.05
65800;BME280;52544;48.116;11.660;2022-08-01T03:44:04;95669.22;;;20.46;60.32
65800;BME280;52544;48.116;11.660;2022-08-01T03:46:58;95673.97;;;20.44;60.34
65800;BME280;52544;48.116;11.660;2022-08-01T03:49:29;95674.91;;;20.52;59.91
65800;BME280;52544;48.116;11.660;2022-08-01T03:51:56;95671.28;;;20.44;59.46
65800;BME280;52544;48.116;11.660;2022-08-01T03:54:25;95685.75;;;20.43;59.94
65800;BME280;52544;48.116;11.660;2022-08-01T03:56:53;95684.00;;;20.36;60.02
65800;BME280;52544;48.116;11.660;2022-08-01T03:59:20;95685.03;;;20.35;60.02
65800;BME280;52544;48.116;11.660;2022-08-01T04:01:47;95687.31;;;20.38;59.41
65800;BME280;52544;48.116;11.660;2022-08-01T04:04:13;95688.63;;;20.42;59.86
65800;BME280;52544;48.116;11.660;2022-08-01T04:06:39;95690.72;;;20.46;58.62
65800;BME280;52544;48.116;11.660;2022-08-01T04:09:07;95688.63;;;20.42;59.31
65800;BME280;52544;48.116;11.660;2022-08-01T04:11:33;95688.53;;;20.50;59.60
65800;BME280;52544;48.116;11.660;2022-08-01T04:13:58;95689.44;;;20.42;59.19
65800;BME280;52544;48.116;11.660;2022-08-01T04:16:24;95696.31;;;20.45;60.44
65800;BME280;52544;48.116;11.660;2022-08-01T04:18:50;95701.88;;;20.43;59.55
65800;BME280;52544;48.116;11.660;2022-08-01T04:21:18;95705.78;;;20.41;59.82
65800;BME280;52544;48.116;11.660;2022-08-01T04:23:46;95705.56;;;20.42;59.47
65800;BME280;52544;48.116;11.660;2022-08-01T04:26:14;95715.13;;;20.45;59.50
65800;BME280;52544;48.116;11.660;2022-08-01T04:28:42;95717.47;;;20.48;59.52
65800;BME280;52544;48.116;11.660;2022-08-01T04:31:09;95711.25;;;20.47;59.80
65800;BME280;52544;48.116;11.660;2022-08-01T04:33:38;95723.75;;;20.40;59.52
65800;BME280;52544;48.116;11.660;2022-08-01T04:36:06;95722.66;;;20.35;59.70
65800;BME280;52544;48.116;11.660;2022-08-01T04:38:34;95715.59;;;20.34;60.23
65800;BME280;52544;48.116;11.660;2022-08-01T04:41:04;95724.69;;;20.33;60.42
65800;BME280;52544;48.116;11.660;2022-08-01T04:43:32;95720.81;;;20.35;60.45
65800;BME280;52544;48.116;11.660;2022-08-01T04:45:58;95719.97;;;20.35;60.16
65800;BME280;52544;48.116;11.660;2022-08-01T04:48:24;95718.03;;;20.29;60.74
65800;BME280;52544;48.116;11.660;2022-08-01T04:50:51;95722.78;;;20.27;61.59
65800;BME280;52544;48.116;11.660;2022-08-01T04:53:18;95723.84;;;20.32;60.25
65800;BME280;52544;48.116;11.660;2022-08-01T04:55:46;95723.66;;;20.34;60.82
65800;BME280;52544;48.116;11.660;2022-08-01T04:58:13;95730.72;;;20.35;60.83
65800;BME280;52544;48.116;11.660;2022-08-01T05:00:39;95725.63;;;20.40;60.14
65800;BME280;52544;48.116;11.660;2022-08-01T05:03:05;95731.25;;;20.45;59.52
65800;BME280;52544;48.116;11.660;2022-08-01T05:05:30;95731.63;;;20.42;60.02
65800;BME280;52544;48.116;11.660;2022-08-01T05:07:57;95731.53;;;20.50;59.63
65800;BME280;52544;48.116;11.660;2022-08-01T05:10:22;95734.97;;;20.44;61.08
65800;BME280;52544;48.116;11.660;2022-08-01T05:12:48;95729.13;;;20.55;59.91
65800;BME280;52544;48.116;11.660;2022-08-01T05:15:13;95739.50;;;20.58;59.85
65800;BME280;52544;48.116;11.660;2022-08-01T05:17:39;95736.81;;;20.58;59.70
65800;BME280;52544;48.116;11.660;2022-08-01T05:20:04;95737.72;;;20.65;59.95
65800;BME280;52544;48.116;11.660;2022-08-01T05:22:31;95740.00;;;20.68;59.56
65800;BME280;52544;48.116;11.660;2022-08-01T05:24:57;95740.69;;;20.70;59.93
65800;BME280;52544;48.116;11.660;2022-08-01T05:27:22;95737.22;;;20.77;58.93
65800;BME280;52544;48.116;11.660;2022-08-01T05:29:48;95740.94;;;20.76;58.90
65800;BME280;52544;48.116;11.660;2022-08-01T05:32:13;95746.09;;;20.77;60.28
65800;BME280;52544;48.116;11.660;2022-08-01T05:34:39;95744.06;;;20.79;59.30
65800;BME280;52544;48.116;11.660;2022-08-01T05:37:04;95747.84;;;20.85;59.16
65800;BME280;52544;48.116;11.660;2022-08-01T05:39:30;95742.00;;;20.81;60.50
65800;BME280;52544;48.116;11.660;2022-08-01T05:41:55;95751.19;;;20.87;59.14
65800;BME280;52544;48.116;11.660;2022-08-01T05:44:21;95753.06;;;20.86;59.07
65800;BME280;52544;48.116;11.660;2022-08-01T05:46:46;95761.72;;;21.03;57.80
65800;BME280;52544;48.116;11.660;2022-08-01T05:49:12;95762.53;;;21.04;58.37
65800;BME280;52544;48.116;11.660;2022-08-01T05:51:37;95754.34;;;21.12;57.75
65800;BME280;52544;48.116;11.660;2022-08-01T05:54:03;95760.69;;;21.26;57.58
65800;BME280;52544;48.116;11.660;2022-08-01T05:56:28;95752.84;;;21.31;57.17
65800;BME280;52544;48.116;11.660;2022-08-01T05:58:54;95761.97;;;21.30;57.29
65800;BME280;52544;48.116;11.660;2022-08-01T06:01:19;95760.00;;;21.38;56.92
65800;BME280;52544;48.116;11.660;2022-08-01T06:03:45;95765.19;;;21.40;57.30
65800;BME280;52544;48.116;11.660;2022-08-01T06:06:12;95757.19;;;21.46;56.29
65800;BME280;52544;48.116;11.660;2022-08-01T06:08:39;95762.59;;;21.53;56.09
65800;BME280;52544;48.116;11.660;2022-08-01T06:11:05;95762.91;;;21.65;55.82
65800;BME280;52544;48.116;11.660;2022-08-01T06:13:30;95767.13;;;21.74;55.58
65800;BME280;52544;48.116;11.660;2022-08-01T06:15:55;95770.09;;;21.86;55.19
65800;BME280;52544;48.116;11.660;2022-08-01T06:18:21;95760.84;;;21.95;54.75
65800;BME280;52544;48.116;11.660;2022-08-01T06:20:47;95765.63;;;22.00;55.14
65800;BME280;52544;48.116;11.660;2022-08-01T06:23:12;95772.13;;;22.05;53.91
65800;BME280;52544;48.116;11.660;2022-08-01T06:25:38;95771.69;;;22.08;54.25
65800;BME280;52544;48.116;11.660;2022-08-01T06:28:04;95765.09;;;22.11;54.16
65800;BME280;52544;48.116;11.660;2022-08-01T06:30:29;95773.19;;;22.11;54.58
65800;BME280;52544;48.116;11.660;2022-08-01T06:32:55;95770.63;;;22.31;53.50
65800;BME280;52544;48.116;11.660;2022-08-01T06:35:23;95772.25;;;22.25;53.89
65800;BME280;52544;48.116;11.660;2022-08-01T06:37:49;95777.09;;;22.36;53.85
65800;BME280;52544;48.116;11.660;2022-08-01T06:40:15;95771.91;;;22.41;53.22
65800;BME280;52544;48.116;11.660;2022-08-01T06:42:40;95774.00;;;22.39;53.65
65800;BME280;52544;48.116;11.660;2022-08-01T06:45:08;95775.50;;;22.55;52.92
65800;BME280;52544;48.116;11.660;2022-08-01T06:47:36;95770.31;;;22.54;53.23
65800;BME280;52544;48.116;11.660;2022-08-01T06:50:03;95779.06;;;22.62;52.61
65800;BME280;52544;48.116;11.660;2022-08-01T06:52:29;95772.03;;;22.68;52.61
65800;BME280;52544;48.116;11.660;2022-08-01T06:54:54;95772.94;;;22.82;52.36
65800;BME280;52544;48.116;11.660;2022-08-01T06:57:19;95765.66;;;22.89;52.44
65800;BME280;52544;48.116;11.660;2022-08-01T06:59:45;95769.25;;;22.96;52.14
65800;BME280;52544;48.116;11.660;2022-08-01T07:02:10;95775.09;;;23.06;52.37
65800;BME280;52544;48.116;11.660;2022-08-01T07:04:36;95765.13;;;23.00;51.88
65800;BME280;52544;48.116;11.660;2022-08-01T07:07:01;95771.59;;;23.12;51.45
65800;BME280;52544;48.116;11.660;2022-08-01T07:09:27;95764.94;;;23.08;52.35
65800;BME280;52544;48.116;11.660;2022-08-01T07:11:53;95765.97;;;23.07;51.75
65800;BME280;52544;48.116;11.660;2022-08-01T07:14:20;95765.53;;;23.10;52.67
65800;BME280;52544;48.116;11.660;2022-08-01T07:16:46;95767.03;;;23.19;52.32
65800;BME280;52544;48.116;11.660;2022-08-01T07:19:12;95765.16;;;23.27;52.07
65800;BME280;52544;48.116;11.660;2022-08-01T07:21:38;95758.50;;;23.23;51.75
65800;BME280;52544;48.116;11.660;2022-08-01T07:24:04;95764.34;;;23.33;51.34
65800;BME280;52544;48.116;11.660;2022-08-01T07:26:30;95762.28;;;23.41;51.63
65800;BME280;52544;48.116;11.660;2022-08-01T07:28:55;95766.03;;;23.47;51.28
65800;BME280;52544;48.116;11.660;2022-08-01T07:31:21;95757.50;;;23.50;51.64
65800;BME280;52544;48.116;11.660;2022-08-01T07:33:46;95760.41;;;23.55;51.83
65800;BME280;52544;48.116;11.660;2022-08-01T07:36:12;95757.75;;;23.68;51.41
65800;BME280;52544;48.116;11.660;2022-08-01T07:38:37;95754.41;;;23.80;50.64
65800;BME280;52544;48.116;11.660;2022-08-01T07:41:03;95754.81;;;23.97;50.60
65800;BME280;52544;48.116;11.660;2022-08-01T07:43:28;95749.78;;;24.13;50.02
65800;BME280;52544;48.116;11.660;2022-08-01T07:45:54;95750.19;;;24.24;49.65
65800;BME280;52544;48.116;11.660;2022-08-01T07:48:19;95750.56;;;24.47;50.04
65800;BME280;52544;48.116;11.660;2022-08-01T07:50:49;95748.63;;;24.61;49.57
65800;BME280;52544;48.116;11.660;2022-08-01T07:53:14;95757.09;;;24.71;49.00
65800;BME280;52544;48.116;11.660;2022-08-01T07:55:40;95764.34;;;24.84;48.77
65800;BME280;52544;48.116;11.660;2022-08-01T07:58:05;95751.75;;;25.03;48.33
65800;BME280;52544;48.116;11.660;2022-08-01T08:00:31;95753.81;;;25.07;48.22
65800;BME280;52544;48.116;11.660;2022-08-01T08:02:56;95756.88;;;25.24;48.58
65800;BME280;52544;48.116;11.660;2022-08-01T08:05:25;95750.25;;;25.13;48.05
65800;BME280;52544;48.116;11.660;2022-08-01T08:07:50;95756.22;;;25.29;48.03
65800;BME280;52544;48.116;11.660;2022-08-01T08:10:16;95765.94;;;25.36;47.97
65800;BME280;52544;48.116;11.660;2022-08-01T08:12:41;95763.00;;;25.38;46.90
65800;BME280;52544;48.116;11.660;2022-08-01T08:15:07;95759.22;;;25.46;46.99
65800;BME280;52544;48.116;11.660;2022-08-01T08:17:33;95752.97;;;25.45;47.72
65800;BME280;52544;48.116;11.660;2022-08-01T08:19:58;95749.31;;;25.33;49.11
65800;BME280;52544;48.116;11.660;2022-08-01T08:22:24;95753.41;;;25.42;48.60
65800;BME280;52544;48.116;11.660;2022-08-01T08:24:49;95761.38;;;25.37;47.71
65800;BME280;52544;48.116;11.660;2022-08-01T08:27:15;95759.09;;;25.34;48.54
65800;BME280;52544;48.116;11.660;2022-08-01T08:29:41;95751.13;;;25.39;47.82
65800;BME280;52544;48.116;11.660;2022-08-01T08:32:07;95755.94;;;25.37;48.27
65800;BME280;52544;48.116;11.660;2022-08-01T08:34:32;95750.78;;;25.29;49.75
65800;BME280;52544;48.116;11.660;2022-08-01T08:36:58;95748.19;;;25.15;48.03
65800;BME280;52544;48.116;11.660;2022-08-01T08:39:25;95756.72;;;25.12;49.45
65800;BME280;52544;48.116;11.660;2022-08-01T08:41:51;95747.78;;;25.12;49.47
65800;BME280;52544;48.116;11.660;2022-08-01T08:44:17;95747.97;;;25.10;48.16
65800;BME280;52544;48.116;11.660;2022-08-01T08:46:44;95745.25;;;25.17;49.15
65800;BME280;52544;48.116;11.660;2022-08-01T08:49:12;95742.34;;;25.05;48.85
65800;BME280;52544;48.116;11.660;2022-08-01T08:51:39;95738.41;;;25.08;49.44
65800;BME280;52544;48.116;11.660;2022-08-01T08:54:07;95750.25;;;25.13;47.63
65800;BME280;52544;48.116;11.660;2022-08-01T08:56:35;95743.34;;;25.17;47.36
65800;BME280;52544;48.116;11.660;2022-08-01T08:59:01;95752.78;;;25.08;49.93
65800;BME280;52544;48.116;11.660;2022-08-01T09:01:27;95750.69;;;25.10;50.29
65800;BME280;52544;48.116;11.660;2022-08-01T09:03:53;95743.63;;;25.09;47.99
65800;BME280;52544;48.116;11.660;2022-08-01T09:06:19;95742.34;;;25.12;48.81
65800;BME280;52544;48.116;11.660;2022-08-01T09:08:45;95739.16;;;25.22;48.88
65800;BME280;52544;48.116;11.660;2022-08-01T09:11:11;95750.41;;;25.18;49.85
65800;BME280;52544;48.116;11.660;2022-08-01T09:13:36;95739.22;;;25.15;48.85
65800;BME280;52544;48.116;11.660;2022-08-01T09:16:04;95752.75;;;25.15;50.00
65800;BME280;52544;48.116;11.660;2022-08-01T09:18:35;95741.06;;;25.14;50.81
65800;BME280;52544;48.116;11.660;2022-08-01T09:21:16;95741.44;;;25.25;48.99
65800;BME280;52544;48.116;11.660;2022-08-01T09:23:49;95743.22;;;25.37;49.82
65800;BME280;52544;48.116;11.660;2022-08-01T09:26:17;95734.84;;;25.46;48.00
65800;BME280;52544;48.116;11.660;2022-08-01T09:28:44;95745.59;;;25.52;48.23
65800;BME280;52544;48.116;11.660;2022-08-01T09:31:13;95746.06;;;25.49;48.62
65800;BME280;52544;48.116;11.660;2022-08-01T09:36:17;95737.19;;;25.60;47.46
65800;BME280;52544;48.116;11.660;2022-08-01T09:38:42;95734.88;;;25.64;46.86
65800;BME280;52544;48.116;11.660;2022-08-01T09:41:08;95743.13;;;25.76;45.34
65800;BME280;52544;48.116;11.660;2022-08-01T09:43:34;95739.78;;;25.80;45.70
65800;BME280;52544;48.116;11.660;2022-08-01T09:46:04;95739.34;;;25.83;47.06
65800;BME280;52544;48.116;11.660;2022-08-01T09:48:31;95739.88;;;25.92;45.59
65800;BME280;52544;48.116;11.660;2022-08-01T09:50:58;95744.41;;;25.98;46.80
65800;BME280;52544;48.116;11.660;2022-08-01T09:53:24;95728.91;;;26.05;46.95
65800;BME280;52544;48.116;11.660;2022-08-01T09:55:50;95734.03;;;26.13;46.79
65800;BME280;52544;48.116;11.660;2022-08-01T09:58:17;95736.16;;;26.30;45.78
65800;BME280;52544;48.116;11.660;2022-08-01T10:00:59;95725.31;;;26.30;45.78
65800;BME280;52544;48.116;11.660;2022-08-01T10:03:29;95729.44;;;26.32;46.60
65800;BME280;52544;48.116;11.660;2022-08-01T10:05:55;95724.53;;;26.41;45.43
65800;BME280;52544;48.116;11.660;2022-08-01T10:08:22;95726.97;;;26.49;46.37
65800;BME280;52544;48.116;11.660;2022-08-01T10:11:08;95719.47;;;26.51;45.85
65800;BME280;52544;48.116;11.660;2022-08-01T10:13:34;95722.97;;;26.70;44.21
65800;BME280;52544;48.116;11.660;2022-08-01T10:16:01;95728.47;;;26.82;44.07
65800;BME280;52544;48.116;11.660;2022-08-01T10:18:28;95715.44;;;26.72;44.63
65800;BME280;52544;48.116;11.660;2022-08-01T10:20:55;95718.88;;;26.79;45.88
65800;BME280;52544;48.116;11.660;2022-08-01T10:23:23;95713.88;;;26.95;45.60
65800;BME280;52544;48.116;11.660;2022-08-01T10:25:51;95704.63;;;26.84;45.69
65800;BME280;52544;48.116;11.660;2022-08-01T10:28:19;95707.94;;;26.86;44.37
65800;BME280;52544;48.116;11.660;2022-08-01T10:30:47;95710.91;;;26.96;44.05
65800;BME280;52544;48.116;11.660;2022-08-01T10:33:13;95701.19;;;27.07;45.02
65800;BME280;52544;48.116;11.660;2022-08-01T10:35:39;95706.31;;;27.27;44.10
65800;BME280;52544;48.116;11.660;2022-08-01T10:38:06;95700.44;;;27.30;42.37
65800;BME280;52544;48.116;11.660;2022-08-01T10:40:31;95698.66;;;27.35;45.41
65800;BME280;52544;48.116;11.660;2022-08-01T10:42:57;95697.38;;;27.38;42.59
65800;BME280;52544;48.116;11.660;2022-08-01T10:45:23;95692.69;;;27.45;43.25
65800;BME280;52544;48.116;11.660;2022-08-01T10:50:44;95692.47;;;27.70;42.50
65800;BME280;52544;48.116;11.660;2022-08-01T10:53:15;95693.78;;;27.79;41.61
65800;BME280;52544;48.116;11.660;2022-08-01T10:58:20;95687.97;;;27.99;42.22
65800;BME280;52544;48.116;11.660;2022-08-01T11:00:46;95691.06;;;28.14;42.47
65800;BME280;52544;48.116;11.660;2022-08-01T11:03:12;95686.78;;;28.19;40.34
65800;BME280;52544;48.116;11.660;2022-08-01T11:05:38;95687.03;;;28.05;40.77
65800;BME280;52544;48.116;11.660;2022-08-01T11:08:10;95677.25;;;27.93;40.83
65800;BME280;52544;48.116;11.660;2022-08-01T11:10:41;95676.06;;;28.00;42.95
65800;BME280;52544;48.116;11.660;2022-08-01T11:13:10;95676.06;;;28.00;41.61
65800;BME280;52544;48.116;11.660;2022-08-01T11:15:37;95681.81;;;28.15;42.00
65800;BME280;52544;48.116;11.660;2022-08-01T11:20:59;95672.53;;;28.63;41.18
65800;BME280;52544;48.116;11.660;2022-08-01T11:23:26;95670.25;;;28.72;39.88
65800;BME280;52544;48.116;11.660;2022-08-01T11:28:21;95670.25;;;29.01;40.16
65800;BME280;52544;48.116;11.660;2022-08-01T11:30:54;95669.28;;;29.07;40.54
65800;BME280;52544;48.116;11.660;2022-08-01T11:38:36;95660.16;;;29.63;39.31
65800;BME280;52544;48.116;11.660;2022-08-01T11:41:37;95664.88;;;29.68;36.82
65800;BME280;52544;48.116;11.660;2022-08-01T11:44:11;95659.31;;;29.29;38.27
65800;BME280;52544;48.116;11.660;2022-08-01T11:54:44;95663.78;;;29.69;38.45
65800;BME280;52544;48.116;11.660;2022-08-01T11:57:19;95660.16;;;29.63;39.05
65800;BME280;52544;48.116;11.660;2022-08-01T11:59:47;95646.91;;;29.38;37.16
65800;BME280;52544;48.116;11.660;2022-08-01T12:02:30;95655.00;;;29.33;38.57
65800;BME280;52544;48.116;11.660;2022-08-01T12:04:59;95662.22;;;29.23;38.04
65800;BME280;52544;48.116;11.660;2022-08-01T12:07:26;95654.34;;;29.43;38.00
65800;BME280;52544;48.116;11.660;2022-08-01T12:10:06;95656.34;;;29.81;38.03
65800;BME280;52544;48.116;11.660;2022-08-01T12:12:33;95652.56;;;29.66;36.46
65800;BME280;52544;48.116;11.660;2022-08-01T12:15:06;95644.69;;;29.19;35.68
65800;BME280;52544;48.116;11.660;2022-08-01T12:17:39;95643.75;;;28.96;37.12
65800;BME280;52544;48.116;11.660;2022-08-01T12:20:10;95643.94;;;29.06;36.03
65800;BME280;52544;48.116;11.660;2022-08-01T12:22:36;95641.38;;;29.17;35.44
65800;BME280;52544;48.116;11.660;2022-08-01T12:25:09;95638.16;;;29.03;37.53
65800;BME280;52544;48.116;11.660;2022-08-01T12:27:36;95639.25;;;28.90;37.14
65800;BME280;52544;48.116;11.660;2022-08-01T12:30:13;95630.41;;;29.11;36.92
65800;BME280;52544;48.116;11.660;2022-08-01T12:32:41;95638.72;;;29.22;36.30
65800;BME280;52544;48.116;11.660;2022-08-01T12:35:09;95629.06;;;29.31;36.61
65800;BME280;52544;48.116;11.660;2022-08-01T12:37:39;95632.91;;;29.63;36.65
65800;BME280;52544;48.116;11.660;2022-08-01T12:40:23;95631.69;;;29.93;37.45
65800;BME280;52544;48.116;11.660;2022-08-01T12:42:53;95625.28;;;29.82;35.77
65800;BME280;52544;48.116;11.660;2022-08-01T12:45:21;95621.00;;;30.08;34.38
65800;BME280;52544;48.116;11.660;2022-08-01T12:47:50;95627.06;;;30.32;33.86
65800;BME280;52544;48.116;11.660;2022-08-01T12:50:20;95624.91;;;30.34;34.07
65800;BME280;52544;48.116;11.660;2022-08-01T12:52:47;95620.38;;;30.45;35.57
65800;BME280;52544;48.116;11.660;2022-08-01T12:55:17;95621.09;;;30.35;32.46
65800;BME280;52544;48.116;11.660;2022-08-01T12:57:45;95624.63;;;30.14;34.55
65800;BME280;52544;48.116;11.660;2022-08-01T13:00:23;95609.53;;;29.89;33.71
65800;BME280;52544;48.116;11.660;2022-08-01T13:03:00;95619.84;;;29.66;34.35
65800;BME280;52544;48.116;11.660;2022-08-01T13:05:26;95610.59;;;29.67;36.77
65800;BME280;52544;48.116;11.660;2022-08-01T13:07:52;95596.72;;;29.90;36.53
65800;BME280;52544;48.116;11.660;2022-08-01T13:10:27;95598.00;;;29.82;36.30
65800;BME280;52544;48.116;11.660;2022-08-01T13:12:55;95605.34;;;29.82;35.83
65800;BME280;52544;48.116;11.660;2022-08-01T13:17:48;95602.97;;;29.69;34.51
65800;BME280;52544;48.116;11.660;2022-08-01T13:20:25;95605.28;;;29.43;36.07
65800;BME280;52544;48.116;11.660;2022-08-01T13:22:51;95605.56;;;29.25;34.85
65800;BME280;52544;48.116;11.660;2022-08-01T13:25:17;95599.75;;;29.04;36.51
65800;BME280;52544;48.116;11.660;2022-08-01T13:27:43;95601.78;;;28.80;35.32
65800;BME280;52544;48.116;11.660;2022-08-01T13:30:18;95604.22;;;28.65;36.69
65800;BME280;52544;48.116;11.660;2022-08-01T13:32:59;95602.44;;;28.42;36.00